AirNav   Everest Fuels
 
 1490 users online  

9PA8 Thomas Jefferson University Hospital Heliport
Philadelphia, Pennsylvania, USA

GOING TO PHILADELPHIA?


FAA INFORMATION EFFECTIVE 02 JANUARY 2020

Location

FAA Identifier: 9PA8
Lat/Long: 39-56-56.4060N 075-09-30.6390W
39-56.940100N 075-09.510650W
39.9490017,-75.1585108
(estimated)
Elevation: 253 ft. / 77 m (estimated)
Variation: 11W (1985)
Time zone: UTC -5 (UTC -4 during Daylight Saving Time)
Zip code: 19107

Heliport Operations

Heliport use: Private use, MEDICAL USE.
Activation date: 09/1970
Control tower: no
ARTCC: NEW YORK CENTER
FSS: WILLIAMSPORT FLIGHT SERVICE STATION
Attendance: UNATNDD
Wind indicator: yes
Segmented circle: no

Heliport Communications

WX ASOS at PHL (6 nm SW): PHONE 215-492-9617
WX ASOS at PNE (10 nm NE): 121.15 (215-677-0146)
WX AWOS-3 at LOM (12 nm NW): 118.925 (215-646-1068)
WX ASOS at VAY (14 nm E): 119.325 (609-267-1176)
WX AWOS-3T at OQN (20 nm W): 121.4 ((610) 692-6190)

Nearby radio navigation aids

VOR radial/distance  VOR name  Freq  Var
OODr030/19.9WOODSTOWN VORTAC112.8010W
ARDr222/21.6YARDLEY VOR/DME108.2010W
MXEr094/23.6MODENA VORTAC113.2009W
PTWr141/24.7POTTSTOWN VORTAC116.5009W
GXUr274/26.1MC GUIRE VORTAC110.6012W
VCNr350/26.2CEDAR LAKE VOR/DME115.2010W
DQOr062/26.3DUPONT VORTAC114.0010W
RBVr253/34.0ROBBINSVILLE VORTAC113.8010W
CYNr293/34.4COYLE VORTAC113.4010W
ACYr328/40.0ATLANTIC CITY VORTAC108.6010W

 
NDB name  Hdg/Dist  Freq  Var  ID
AMBLER163/12.127512WING .. -. --.
RAINBOW009/31.936311WRNB .-. -. -...
LAKEHURST272/38.339611WNEL -. . .-..

Heliport Services

Airframe service: NONE
Powerplant service: NONE

Runway Information

Helipad H1

Dimensions: 40 x 40 ft. / 12 x 12 m
Surface: asphalt
Latitude: 39-56.940100N
Longitude: 075-09.510650W
Elevation: 253.0 ft.
Traffic pattern: leftleft

Heliport Ownership and Management from official FAA records

Ownership: Privately-owned
Owner: THOMAS JEFFERSON UNIV HOSP
11TH & WALNUT
PHILADELPHIA, PA 19107
Phone 215-955-6000
215-955-4444.
Manager: BRIAN SWEENEY
111 SOUTH 11TH STREET, SUITE 2210
PHILADELPHIA, PA 19107
Phone (215) 955-7937

Additional Remarks

FOR CD CTC PHILADELPHIA APCH AT 800-354-9884.

Instrument Procedures

There are no published instrument procedures at 9PA8.

Some nearby airports with instrument procedures:

KPHL - Philadelphia International Airport (6 nm SW)
KPNE - Northeast Philadelphia Airport (10 nm NE)
KLOM - Wings Field Airport (12 nm NW)
19N - Camden County Airport (14 nm SE)
KVAY - South Jersey Regional Airport (14 nm E)
17N - Cross Keys Airport (16 nm S)
N14 - Flying W Airport (16 nm E)
7N7 - Spitfire Aerodrome (17 nm SW)
KOQN - Brandywine Regional Airport (20 nm W)
N10 - Perkiomen Valley Airport (20 nm NW)
 
Loc | Ops | Rwys | IFR | FBO | Links
Com | Nav | Svcs | Stats | Notes
Area around 9PA8 (Thomas Jefferson University Hospital Heliport)
 
Road maps at: MapQuest Bing Google
 
Aerial photo
No photo
 
Sectional chart

 
Airport distance calculator
Flying to Thomas Jefferson University Hospital Heliport? Find the distance to fly.

From to 9PA8

Sunrise and sunset
Times for 23-Jan-2020
 Local
(UTC-5)
 Zulu
(UTC)
Morning civil twilight06:4811:48
Sunrise07:1712:17
Sunset17:0822:08
Evening civil twilight17:3722:37

Current date and time
Zulu (UTC)  24-Jan-2020 00:02:44
Local (UTC-5)  23-Jan-2020 19:02:44
 
METAR
KPHL 
6nm SW 
232354Z 20003KT 10SM OVC180 05/M07 A3037 RMK AO2 SLP284 T00501067 10072 20039 51007
KPNE 
10nm NE 
232354Z 00000KT 10SM BKN038 04/M07 A3038 RMK AO2 SLP286 T00441072 10089 20044 51007
KLOM 
12nm NW 
232355Z AUTO 00000KT 10SM CLR 01/M05 A3036 RMK AO2 T00071053 10067 20001 400671086
KVAY 
15nm E 
ASOS 119.325 609-267-1176
232354Z AUTO 00000KT 10SM CLR 01/M07 A3037 RMK AO2 SLP284 T00111067 10072 20011 52009
KOQN 
20nm W 
232355Z AUTO 00000KT 10SM CLR 03/M06 A3035 RMK AO2
TAF
KPHL 
6nm SW 
232055Z 2321/2424 VRB03KT P6SM FEW200 OVC250 FM240200 VRB03KT P6SM BKN250 FM241500 05005KT P6SM BKN200
KPNE 
10nm NE 
231738Z 2318/2418 VRB03KT P6SM BKN250 FM241200 VRB02KT P6SM SCT200
NOTAMs
Click for the latest NOTAMs
NOTAMs are issued by the DoD/FAA and will open in a separate window not controlled by AirNav.

 

 
 

Would you like to see your business listed on this page?

 If your business provides an interesting product or service to pilots, flight crews, aircraft, or users of the Thomas Jefferson University Hospital Heliport, you should consider listing it here.  To start the listing process, click on the button below
 
Add a business
 

Other Pages about Thomas Jefferson University Hospital Heliport

Update a link
 
Copyright © AirNav, LLC. All rights reserved. Privacy Policy  Contact